NCAR-RAP Real-Time Weather Data

Output produced by METARs form (26 May 2022  07:31 UTC)
found at http://weather.rap.ucar.edu/surface/
 
VYYY 260700Z 17012KT 7000 BKN016 FEW020CB BKN110 31/25 Q1004
VYYY 260630Z 25012KT 7000 BKN016 FEW020CB BKN110 31/25 Q1005
VYYY 260600Z 26012KT 7000 BKN016 FEW020CB BKN110 31/25 Q1005
VYYY 260530Z 20012KT 7000 BKN016 FEW020CB BKN110 31/25 Q1006
VYYY 260500Z 23012KT 7000 BKN018 FEW025CB BKN110 31/25 Q1007
VYYY 260430Z 28012KT 7000 BKN018 FEW025CB BKN110 31/25 Q1007
VYYY 260400Z 24010KT 7000 BKN020 FEW025CB BKN110 31/25 Q1007
VYYY 260330Z 25008G18KT 7000 BKN020 FEW025CB BKN110 30/25 Q1007
VYYY 260300Z 26008G18KT 7000 BKN020 FEW025CB BKN110 30/25 Q1007
VYYY 260200Z 22004KT 7000 BKN020 FEW022CB BKN100 27/25 Q1007
VYYY 260130Z 21005KT 7000 BKN020 FEW022CB BKN100 27/25 Q1007
VYYY 260100Z 22006KT 6000 BKN020 FEW022CB BKN100 26/25 Q1007
VYYY 260030Z 21005KT 6000 BKN020 FEW022CB BKN100 25/23 Q1007
VYYY 260000Z 21004KT 6000 BKN020 FEW022CB BKN100 25/23 Q1007
VYYY 252330Z 19003KT 6000 BKN020 FEW022CB BKN100 25/23 Q1007
VYYY 252300Z 20002KT 6000 BKN020 FEW022CB BKN100 25/23 Q1006
VYYY 252230Z 00000KT 6000 BKN020 FEW022CB BKN100 25/23 Q1006
VYYY 252200Z 21003KT 6000 BKN020 FEW022CB BKN100 25/23 Q1006
VYYY 252130Z 21002KT 6000 BKN020 FEW022CB BKN100 25/23 Q1006
VYYY 252100Z 21002KT 6000 BKN020 FEW022CB BKN100 25/23 Q1006
VYYY 252030Z 22003KT 6000 BKN020 FEW022CB BKN100 25/23 Q1006
VYYY 252000Z 20002KT 6000 BKN020 FEW022CB BKN100 25/23 Q1006